createdAt,value
2017-07-02T00:00:11.914Z,0
2017-07-02T00:01:11.908Z,0
2017-07-02T00:02:11.926Z,0
2017-07-02T00:03:11.854Z,0
2017-07-02T00:04:11.837Z,0
2017-07-02T00:05:11.817Z,0
2017-07-02T00:06:11.486Z,0
2017-07-02T00:07:11.768Z,0
2017-07-02T00:08:11.795Z,0
2017-07-02T00:09:11.775Z,0
2017-07-02T00:10:11.714Z,0
2017-07-02T00:11:11.682Z,0
2017-07-02T00:12:11.672Z,0
2017-07-02T00:13:11.658Z,0
2017-07-02T00:14:11.675Z,0
2017-07-02T00:15:11.600Z,0
2017-07-02T00:16:11.587Z,0
2017-07-02T00:17:11.562Z,0
2017-07-02T00:18:11.535Z,0
2017-07-02T00:19:11.514Z,0
2017-07-02T00:20:11.550Z,0
2017-07-02T00:21:11.481Z,0
2017-07-02T00:22:11.455Z,0
2017-07-02T00:23:11.481Z,0
2017-07-02T00:24:11.413Z,0
2017-07-02T00:25:11.388Z,0
2017-07-02T00:26:11.375Z,0
2017-07-02T00:27:11.401Z,0
2017-07-02T00:28:11.330Z,0
2017-07-02T00:29:11.311Z,0
2017-07-02T00:30:11.280Z,0
2017-07-02T00:31:11.267Z,0
2017-07-02T00:32:11.293Z,0
2017-07-02T00:33:10.940Z,0
2017-07-02T00:34:11.201Z,0
2017-07-02T00:35:11.232Z,0
2017-07-02T00:36:11.161Z,0
2017-07-02T00:37:11.202Z,0
2017-07-02T00:38:11.128Z,0
2017-07-02T00:39:11.152Z,0
2017-07-02T00:40:11.074Z,0
2017-07-02T00:41:11.055Z,0
2017-07-02T00:42:11.044Z,0
2017-07-02T00:43:11.013Z,0
2017-07-02T00:44:10.685Z,0
2017-07-02T00:45:10.685Z,0
2017-07-02T00:46:11.199Z,0
2017-07-02T00:47:10.938Z,0
2017-07-02T00:48:10.919Z,0
2017-07-02T00:49:10.890Z,0
2017-07-02T00:50:10.863Z,0
2017-07-02T00:51:10.846Z,0
2017-07-02T00:52:10.527Z,0
2017-07-02T00:53:10.804Z,0
2017-07-02T00:54:10.787Z,0
2017-07-02T00:55:10.766Z,0
2017-07-02T00:56:10.745Z,0
2017-07-02T00:57:10.721Z,0
2017-07-02T00:58:10.700Z,0
2017-07-02T00:59:10.682Z,0
2017-07-02T01:00:10.717Z,0
2017-07-02T01:01:10.642Z,0
2017-07-02T01:02:10.611Z,0
2017-07-02T01:03:10.594Z,0
2017-07-02T01:04:10.266Z,0
2017-07-02T01:05:10.802Z,0
2017-07-02T01:06:10.533Z,0
2017-07-02T01:07:10.543Z,0
2017-07-02T01:08:10.194Z,0
2017-07-02T01:09:10.462Z,0
2017-07-02T01:10:10.476Z,0
2017-07-02T01:11:10.123Z,0
2017-07-02T01:12:10.411Z,0
2017-07-02T01:13:10.393Z,0
2017-07-02T01:14:10.364Z,0
2017-07-02T01:15:10.337Z,0
2017-07-02T01:16:10.320Z,0
2017-07-02T01:17:10.296Z,0
2017-07-02T01:18:10.277Z,0
2017-07-02T01:19:10.256Z,0
2017-07-02T01:20:10.285Z,0
2017-07-02T01:21:10.269Z,0
2017-07-02T01:22:10.195Z,0
2017-07-02T01:23:10.168Z,0
2017-07-02T01:24:10.153Z,0
2017-07-02T01:25:10.132Z,0
2017-07-02T01:26:10.114Z,0
2017-07-02T01:27:10.081Z,0
2017-07-02T01:28:10.066Z,0
2017-07-02T01:29:09.746Z,0
2017-07-02T01:30:10.027Z,0
2017-07-02T01:31:09.999Z,0
2017-07-02T01:32:09.981Z,0
2017-07-02T01:33:09.976Z,0
2017-07-02T01:34:09.994Z,0
2017-07-02T01:35:09.615Z,0
2017-07-02T01:36:09.898Z,0
2017-07-02T01:37:09.876Z,0
2017-07-02T01:38:09.859Z,0
2017-07-02T01:39:09.836Z,0
2017-07-02T01:40:09.567Z,0
2017-07-02T01:41:09.797Z,0
2017-07-02T01:42:09.765Z,0
2017-07-02T01:43:09.751Z,0
2017-07-02T01:44:09.782Z,0
2017-07-02T01:45:09.705Z,0
2017-07-02T01:46:09.681Z,0
2017-07-02T01:47:09.919Z,0
2017-07-02T01:48:09.653Z,0
2017-07-02T01:49:09.622Z,0
2017-07-02T01:50:09.600Z,0
2017-07-02T01:51:09.585Z,0
2017-07-02T01:52:09.251Z,0
2017-07-02T01:53:09.535Z,0
2017-07-02T01:54:09.223Z,0
2017-07-02T01:55:09.494Z,0
2017-07-02T01:56:09.474Z,0
2017-07-02T01:57:09.457Z,0
2017-07-02T01:58:09.430Z,0
2017-07-02T01:59:09.416Z,0
2017-07-02T02:00:09.081Z,0
2017-07-02T02:01:09.373Z,0
2017-07-02T02:02:09.348Z,0
2017-07-02T02:03:09.325Z,0
2017-07-02T02:04:09.301Z,0
2017-07-02T02:05:09.285Z,0
2017-07-02T02:06:09.259Z,0
2017-07-02T02:07:09.236Z,0
2017-07-02T02:08:09.249Z,0
2017-07-02T02:09:09.204Z,0
2017-07-02T02:10:09.171Z,0
2017-07-02T02:11:09.153Z,0
2017-07-02T02:12:09.138Z,0
2017-07-02T02:13:09.111Z,0
2017-07-02T02:14:09.096Z,0
2017-07-02T02:15:09.064Z,0
2017-07-02T02:16:09.045Z,0
2017-07-02T02:17:09.034Z,0
2017-07-02T02:18:08.706Z,0
2017-07-02T02:19:08.985Z,0
2017-07-02T02:20:08.966Z,0
2017-07-02T02:21:08.947Z,0
2017-07-02T02:22:08.922Z,0
2017-07-02T02:23:08.905Z,0
2017-07-02T02:24:08.875Z,0
2017-07-02T02:25:08.856Z,4
2017-07-02T02:26:08.832Z,4
2017-07-02T02:27:08.818Z,4
2017-07-02T02:28:08.499Z,0
2017-07-02T02:29:08.771Z,0
2017-07-02T02:30:08.448Z,0
2017-07-02T02:31:08.421Z,4
2017-07-02T02:32:08.708Z,4
2017-07-02T02:33:08.388Z,4
2017-07-02T02:34:08.915Z,0
2017-07-02T02:35:08.645Z,4
2017-07-02T02:36:08.626Z,4
2017-07-02T02:37:08.596Z,4
2017-07-02T02:38:08.572Z,4
2017-07-02T02:39:08.558Z,4
2017-07-02T02:40:08.570Z,4
2017-07-02T02:41:08.604Z,8
2017-07-02T02:42:08.199Z,4
2017-07-02T02:43:08.474Z,8
2017-07-02T02:44:08.454Z,8
2017-07-02T02:45:08.435Z,4
2017-07-02T02:46:08.136Z,8
2017-07-02T02:47:08.389Z,8
2017-07-02T02:48:08.367Z,12
2017-07-02T02:49:08.347Z,12
2017-07-02T02:50:08.327Z,16
2017-07-02T02:51:08.348Z,12
2017-07-02T02:52:08.289Z,20
2017-07-02T02:53:08.278Z,20
2017-07-02T02:54:08.235Z,24
2017-07-02T02:55:08.342Z,24
2017-07-02T02:56:08.209Z,32
2017-07-02T02:57:08.189Z,36
2017-07-02T02:58:07.886Z,40
2017-07-02T02:59:08.142Z,48
2017-07-02T03:00:07.815Z,52
2017-07-02T03:01:08.102Z,60
2017-07-02T03:02:08.093Z,64
2017-07-02T03:03:07.748Z,76
2017-07-02T03:04:08.045Z,84
2017-07-02T03:05:08.025Z,96
2017-07-02T03:06:07.988Z,108
2017-07-02T03:07:07.720Z,116
2017-07-02T03:08:07.941Z,128
2017-07-02T03:09:07.621Z,136
2017-07-02T03:10:07.908Z,144
2017-07-02T03:11:07.874Z,156
2017-07-02T03:12:07.863Z,172
2017-07-02T03:13:07.861Z,188
2017-07-02T03:14:07.818Z,204
2017-07-02T03:15:07.796Z,232
2017-07-02T03:16:07.776Z,256
2017-07-02T03:17:07.754Z,264
2017-07-02T03:18:07.730Z,268
2017-07-02T03:19:07.718Z,284
2017-07-02T03:20:07.737Z,312
2017-07-02T03:21:07.672Z,324
2017-07-02T03:22:07.651Z,332
2017-07-02T03:23:07.666Z,328
2017-07-02T03:24:07.606Z,316
2017-07-02T03:25:07.590Z,312
2017-07-02T03:26:07.562Z,312
2017-07-02T03:27:07.540Z,308
2017-07-02T03:28:07.518Z,320
2017-07-02T03:29:07.502Z,340
2017-07-02T03:30:07.484Z,368
2017-07-02T03:31:07.454Z,392
2017-07-02T03:32:07.135Z,420
2017-07-02T03:33:07.462Z,448
2017-07-02T03:34:07.398Z,460
2017-07-02T03:35:07.379Z,484
2017-07-02T03:36:07.347Z,508
2017-07-02T03:37:07.334Z,516
2017-07-02T03:38:07.311Z,496
2017-07-02T03:39:06.981Z,480
2017-07-02T03:40:07.009Z,504
2017-07-02T03:41:07.244Z,540
2017-07-02T03:42:07.221Z,572
2017-07-02T03:43:07.209Z,600
2017-07-02T03:44:07.182Z,620
2017-07-02T03:45:07.160Z,656
2017-07-02T03:46:07.440Z,700
2017-07-02T03:47:07.126Z,764
2017-07-02T03:48:07.110Z,804
2017-07-02T03:49:07.080Z,832
2017-07-02T03:50:07.061Z,820
2017-07-02T03:51:07.031Z,888
2017-07-02T03:52:07.065Z,968
2017-07-02T03:53:06.999Z,1032
2017-07-02T03:54:07.014Z,1020
2017-07-02T03:55:06.949Z,1060
2017-07-02T03:56:06.941Z,1120
2017-07-02T03:57:06.902Z,1160
2017-07-02T03:58:06.883Z,1128
2017-07-02T03:59:06.859Z,1176
2017-07-02T04:00:06.592Z,1292
2017-07-02T04:01:06.820Z,1416
2017-07-02T04:02:06.812Z,1440
2017-07-02T04:03:06.785Z,1320
2017-07-02T04:04:06.755Z,1196
2017-07-02T04:05:06.754Z,1164
2017-07-02T04:06:06.711Z,1164
2017-07-02T04:07:06.696Z,1140
2017-07-02T04:08:06.670Z,1112
2017-07-02T04:09:06.650Z,1096
2017-07-02T04:10:06.624Z,1108
2017-07-02T04:11:06.605Z,1172
2017-07-02T04:12:06.588Z,1252
2017-07-02T04:13:06.616Z,1272
2017-07-02T04:14:06.252Z,1292
2017-07-02T04:15:06.518Z,1328
2017-07-02T04:16:06.509Z,1328
2017-07-02T04:17:06.181Z,1312
2017-07-02T04:18:06.462Z,1340
2017-07-02T04:19:06.438Z,1368
2017-07-02T04:20:06.431Z,1344
2017-07-02T04:21:06.103Z,1332
2017-07-02T04:22:06.384Z,1400
2017-07-02T04:23:06.362Z,1416
2017-07-02T04:24:06.335Z,1384
2017-07-02T04:25:06.320Z,1412
2017-07-02T04:26:06.295Z,1532
2017-07-02T04:27:06.022Z,1652
2017-07-02T04:28:06.262Z,1744
2017-07-02T04:29:06.227Z,1760
2017-07-02T04:30:06.272Z,1684
2017-07-02T04:31:06.196Z,1692
2017-07-02T04:32:06.170Z,1768
2017-07-02T04:33:06.148Z,1864
2017-07-02T04:34:06.132Z,1920
2017-07-02T04:35:06.108Z,1972
2017-07-02T04:36:06.087Z,2012
2017-07-02T04:37:06.068Z,2052
2017-07-02T04:38:05.749Z,2052
2017-07-02T04:39:06.022Z,2056
2017-07-02T04:40:06.001Z,2108
2017-07-02T04:41:05.979Z,2224
2017-07-02T04:42:06.007Z,2296
2017-07-02T04:43:05.636Z,2308
2017-07-02T04:44:05.917Z,2356
2017-07-02T04:45:05.902Z,2496
2017-07-02T04:46:05.876Z,2656
2017-07-02T04:47:05.855Z,2684
2017-07-02T04:48:05.882Z,2648
2017-07-02T04:49:05.814Z,2688
2017-07-02T04:50:05.791Z,2896
2017-07-02T04:51:05.781Z,3068
2017-07-02T04:52:05.753Z,3280
2017-07-02T04:53:05.722Z,3432
2017-07-02T04:54:05.752Z,3420
2017-07-02T04:55:05.734Z,3436
2017-07-02T04:56:05.665Z,3520
2017-07-02T04:57:05.355Z,3692
2017-07-02T04:58:05.626Z,3944
2017-07-02T04:59:05.654Z,4060
2017-07-02T05:00:05.583Z,4032
2017-07-02T05:01:05.556Z,3956
2017-07-02T05:02:05.547Z,3952
2017-07-02T05:03:05.618Z,4008
2017-07-02T05:04:05.198Z,3988
2017-07-02T05:05:05.491Z,3948
2017-07-02T05:06:05.516Z,3928
2017-07-02T05:07:05.433Z,3852
2017-07-02T05:08:05.427Z,3752
2017-07-02T05:09:05.446Z,3660
2017-07-02T05:10:05.377Z,3592
2017-07-02T05:11:05.370Z,3592
2017-07-02T05:12:05.333Z,3660
2017-07-02T05:13:05.310Z,3680
2017-07-02T05:14:04.993Z,3668
2017-07-02T05:15:05.272Z,3684
2017-07-02T05:16:05.246Z,3724
2017-07-02T05:17:05.233Z,3824
2017-07-02T05:18:04.964Z,3880
2017-07-02T05:19:05.202Z,3944
2017-07-02T05:20:04.857Z,4184
2017-07-02T05:21:04.845Z,4264
2017-07-02T05:22:05.131Z,4256
2017-07-02T05:23:05.100Z,4208
2017-07-02T05:24:05.084Z,4116
2017-07-02T05:25:05.062Z,4060
2017-07-02T05:26:05.042Z,4032
2017-07-02T05:27:05.026Z,4028
2017-07-02T05:28:05.003Z,4032
2017-07-02T05:29:04.988Z,3980
2017-07-02T05:30:04.961Z,3960
2017-07-02T05:31:04.938Z,3996
2017-07-02T05:32:04.915Z,4132
2017-07-02T05:33:04.905Z,4320
2017-07-02T05:34:04.876Z,4528
2017-07-02T05:35:04.862Z,4760
2017-07-02T05:36:04.835Z,5020
2017-07-02T05:37:04.819Z,5364
2017-07-02T05:38:04.499Z,5792
2017-07-02T05:39:04.786Z,6264
2017-07-02T05:40:04.756Z,6752
2017-07-02T05:41:04.734Z,7284
2017-07-02T05:42:04.713Z,7916
2017-07-02T05:43:04.135Z,8600
2017-07-02T05:44:04.681Z,9412
2017-07-02T05:45:04.651Z,10304
2017-07-02T05:46:04.638Z,11508
2017-07-02T05:47:04.658Z,13704
2017-07-02T05:48:04.643Z,14552
2017-07-02T05:49:04.577Z,14516
2017-07-02T05:50:04.607Z,14428
2017-07-02T05:51:04.530Z,14220
2017-07-02T05:52:04.767Z,14128
2017-07-02T05:53:04.492Z,12740
2017-07-02T05:54:04.470Z,14244
2017-07-02T05:55:04.457Z,14936
2017-07-02T05:56:04.435Z,12648
2017-07-02T05:57:04.410Z,12656
2017-07-02T05:58:04.394Z,13164
2017-07-02T05:59:04.370Z,14520
2017-07-02T06:00:04.350Z,16768
2017-07-02T06:01:04.335Z,17440
2017-07-02T06:02:04.312Z,19488
2017-07-02T06:03:04.297Z,16416
2017-07-02T06:04:04.277Z,13804
2017-07-02T06:05:04.256Z,14288
2017-07-02T06:06:04.247Z,13780
2017-07-02T06:07:04.224Z,13372
2017-07-02T06:08:04.247Z,13364
2017-07-02T06:09:04.184Z,12376
2017-07-02T06:10:04.165Z,11828
2017-07-02T06:11:04.150Z,11424
2017-07-02T06:12:04.209Z,11248
2017-07-02T06:13:03.853Z,11040
2017-07-02T06:14:04.088Z,10696
2017-07-02T06:15:04.072Z,10160
2017-07-02T06:16:03.809Z,9372
2017-07-02T06:17:04.286Z,8216
2017-07-02T06:18:04.009Z,7000
2017-07-02T06:19:03.994Z,6288
2017-07-02T06:20:03.973Z,6040
2017-07-02T06:21:03.957Z,6052
2017-07-02T06:22:03.945Z,6040
2017-07-02T06:23:03.925Z,6072
2017-07-02T06:24:03.599Z,6220
2017-07-02T06:25:03.889Z,6188
2017-07-02T06:26:03.559Z,6144
2017-07-02T06:27:03.840Z,6204
2017-07-02T06:28:03.214Z,6380
2017-07-02T06:29:03.800Z,6568
2017-07-02T06:30:03.486Z,6632
2017-07-02T06:31:03.466Z,6712
2017-07-02T06:32:03.756Z,6876
2017-07-02T06:33:03.734Z,7124
2017-07-02T06:34:03.756Z,7160
2017-07-02T06:35:03.686Z,7332
2017-07-02T06:36:03.667Z,7536
2017-07-02T06:37:03.652Z,7848
2017-07-02T06:38:03.633Z,8712
2017-07-02T06:39:03.615Z,10104
2017-07-02T06:40:03.582Z,11316
2017-07-02T06:41:03.580Z,11756
2017-07-02T06:42:03.559Z,11148
2017-07-02T06:43:03.538Z,11076
2017-07-02T06:44:03.221Z,11708
2017-07-02T06:45:03.207Z,12220
2017-07-02T06:46:03.470Z,12420
2017-07-02T06:47:03.157Z,12380
2017-07-02T06:48:03.484Z,12548
2017-07-02T06:49:03.421Z,13256
2017-07-02T06:50:03.402Z,14540
2017-07-02T06:51:03.385Z,14920
2017-07-02T06:52:03.361Z,13092
2017-07-02T06:53:03.342Z,10244
2017-07-02T06:54:03.321Z,8252
2017-07-02T06:55:03.302Z,7772
2017-07-02T06:56:03.296Z,7928
2017-07-02T06:57:03.263Z,7868
2017-07-02T06:58:03.242Z,6904
2017-07-02T06:59:03.225Z,6716
2017-07-02T07:00:03.215Z,7040
2017-07-02T07:01:03.137Z,7636
2017-07-02T07:02:02.869Z,8352
2017-07-02T07:03:03.204Z,8268
2017-07-02T07:04:02.832Z,7612
2017-07-02T07:05:03.125Z,7344
2017-07-02T07:06:03.092Z,7600
2017-07-02T07:07:03.136Z,7676
2017-07-02T07:08:03.055Z,7128
2017-07-02T07:09:02.729Z,6464
2017-07-02T07:10:03.020Z,6032
2017-07-02T07:11:02.993Z,6052
2017-07-02T07:12:02.987Z,6732
2017-07-02T07:13:02.664Z,7616
2017-07-02T07:14:02.946Z,9084
2017-07-02T07:15:02.622Z,9652
2017-07-02T07:16:02.902Z,9192
2017-07-02T07:17:02.884Z,8808
2017-07-02T07:18:02.559Z,7468
2017-07-02T07:19:02.855Z,5128
2017-07-02T07:20:02.829Z,3468
2017-07-02T07:21:02.860Z,2572
2017-07-02T07:22:02.777Z,2036
2017-07-02T07:23:02.759Z,1840
2017-07-02T07:24:02.749Z,2100
2017-07-02T07:25:02.774Z,2484
2017-07-02T07:26:02.704Z,2936
2017-07-02T07:27:02.691Z,3472
2017-07-02T07:28:02.675Z,4092
2017-07-02T07:29:02.652Z,4992
2017-07-02T07:30:02.674Z,6540
2017-07-02T07:31:02.606Z,8436
2017-07-02T07:32:02.641Z,10256
2017-07-02T07:33:02.602Z,11544
2017-07-02T07:34:02.554Z,11408
2017-07-02T07:35:02.541Z,11744
2017-07-02T07:36:02.508Z,12136
2017-07-02T07:37:02.483Z,12424
2017-07-02T07:38:02.501Z,11676
2017-07-02T07:39:02.446Z,11548
2017-07-02T07:40:02.121Z,10356
2017-07-02T07:41:02.414Z,8504
2017-07-02T07:42:02.387Z,7504
2017-07-02T07:43:02.364Z,6108
2017-07-02T07:44:02.347Z,4936
2017-07-02T07:45:02.336Z,4516
2017-07-02T07:46:02.307Z,4656
2017-07-02T07:47:02.289Z,4920
2017-07-02T07:48:02.020Z,5008
2017-07-02T07:49:02.257Z,4752
2017-07-02T07:50:02.229Z,4468
2017-07-02T07:51:01.962Z,4028
2017-07-02T07:52:02.189Z,3288
2017-07-02T07:53:02.167Z,2992
2017-07-02T07:54:02.154Z,2640
2017-07-02T07:55:02.125Z,2860
2017-07-02T07:56:02.107Z,3472
2017-07-02T07:57:02.099Z,3936
2017-07-02T07:58:02.119Z,4532
2017-07-02T07:59:02.096Z,4840
2017-07-02T08:00:02.041Z,4764
2017-07-02T08:01:02.075Z,4448
2017-07-02T08:02:02.026Z,5032
2017-07-02T08:03:01.994Z,6364
2017-07-02T08:04:01.947Z,6004
2017-07-02T08:05:01.936Z,4828
2017-07-02T08:06:01.934Z,4164
2017-07-02T08:07:01.591Z,4376
2017-07-02T08:08:01.879Z,4240
2017-07-02T08:09:01.854Z,5268
2017-07-02T08:10:01.893Z,6364
2017-07-02T08:11:01.819Z,7012
2017-07-02T08:12:01.793Z,7724
2017-07-02T08:13:01.471Z,9124
2017-07-02T08:14:01.747Z,10376
2017-07-02T08:15:01.743Z,10152
2017-07-02T08:16:01.404Z,9620
2017-07-02T08:17:01.407Z,9416
2017-07-02T08:18:01.673Z,9672
2017-07-02T08:19:01.663Z,8932
2017-07-02T08:20:01.688Z,9392
2017-07-02T08:21:01.625Z,10304
2017-07-02T08:22:01.604Z,9012
2017-07-02T08:23:01.272Z,8544
2017-07-02T08:24:01.311Z,8288
2017-07-02T08:25:01.533Z,7160
2017-07-02T08:26:01.513Z,8072
2017-07-02T08:27:01.491Z,8372
2017-07-02T08:28:01.477Z,9064
2017-07-02T08:29:01.451Z,13272
2017-07-02T08:30:01.480Z,12924
2017-07-02T08:31:01.457Z,11388
2017-07-02T08:32:01.441Z,11580
2017-07-02T08:33:01.378Z,10372
2017-07-02T08:34:01.350Z,8820
2017-07-02T08:35:01.331Z,8524
2017-07-02T08:36:01.315Z,6120
2017-07-02T08:37:01.387Z,6248
2017-07-02T08:38:01.273Z,6332
2017-07-02T08:39:01.247Z,6924
2017-07-02T08:40:01.237Z,7424
2017-07-02T08:41:01.214Z,8368
2017-07-02T08:42:01.191Z,8792
2017-07-02T08:43:01.218Z,9832
2017-07-02T08:44:00.860Z,6912
2017-07-02T08:45:00.829Z,4832
2017-07-02T08:46:01.109Z,4156
2017-07-02T08:47:00.790Z,4204
2017-07-02T08:48:00.776Z,6488
2017-07-02T08:49:01.059Z,9180
2017-07-02T08:50:01.046Z,12224
2017-07-02T08:51:01.009Z,13484
2017-07-02T08:52:00.685Z,12976
2017-07-02T08:53:00.972Z,10064
2017-07-02T08:54:00.699Z,7436
2017-07-02T08:55:00.944Z,5860
2017-07-02T08:56:00.912Z,4904
2017-07-02T08:57:00.601Z,4684
2017-07-02T08:58:00.928Z,4920
2017-07-02T08:59:00.895Z,6424
2017-07-02T09:00:00.831Z,9412
2017-07-02T09:01:00.806Z,11656
2017-07-02T09:02:00.796Z,11036
2017-07-02T09:03:00.771Z,11256
2017-07-02T09:04:00.448Z,11936
2017-07-02T09:05:00.782Z,11932
2017-07-02T09:06:00.711Z,10564
2017-07-02T09:07:00.743Z,11584
2017-07-02T09:08:00.676Z,9720
2017-07-02T09:09:00.711Z,9828
2017-07-02T09:10:00.631Z,9980
2017-07-02T09:11:00.617Z,9280
2017-07-02T09:12:00.597Z,10296
2017-07-02T09:13:00.280Z,10336
2017-07-02T09:14:00.569Z,10272
2017-07-02T09:15:00.538Z,10328
2017-07-02T09:16:00.583Z,12064
2017-07-02T09:17:00.494Z,8540
2017-07-02T09:18:00.535Z,9680
2017-07-02T09:19:00.151Z,9484
2017-07-02T09:20:00.439Z,9236
2017-07-02T09:21:00.412Z,7848
2017-07-02T09:22:00.395Z,7872
2017-07-02T09:23:00.375Z,8120
2017-07-02T09:24:00.378Z,9384
2017-07-02T09:25:00.390Z,9588
2017-07-02T09:26:00.014Z,9048
2017-07-02T09:27:00.303Z,11908
2017-07-02T09:28:00.289Z,10624
2017-07-02T09:28:59.966Z,10068
2017-07-02T09:30:00.286Z,9540
2017-07-02T09:31:00.276Z,11116
2017-07-02T09:32:00.203Z,10656
2017-07-02T09:33:00.176Z,11328
2017-07-02T09:33:59.848Z,13784
2017-07-02T09:35:00.135Z,9772
2017-07-02T09:36:00.119Z,9956
2017-07-02T09:37:00.342Z,9356
2017-07-02T09:38:00.089Z,8528
2017-07-02T09:39:00.078Z,8632
2017-07-02T09:39:59.743Z,12484
2017-07-02T09:41:00.026Z,11892
2017-07-02T09:41:59.999Z,10856
2017-07-02T09:42:59.680Z,11604
2017-07-02T09:43:59.706Z,11144
2017-07-02T09:44:59.949Z,13564
2017-07-02T09:45:59.917Z,12444
2017-07-02T09:46:59.898Z,11612
2017-07-02T09:47:59.885Z,14348
2017-07-02T09:48:59.876Z,12804
2017-07-02T09:49:59.849Z,12568
2017-07-02T09:50:59.533Z,10028
2017-07-02T09:51:59.771Z,10860
2017-07-02T09:52:59.839Z,10340
2017-07-02T09:53:59.769Z,9260
2017-07-02T09:54:59.811Z,10420
2017-07-02T09:55:59.729Z,11344
2017-07-02T09:56:59.409Z,11744
2017-07-02T09:57:59.692Z,9628
2017-07-02T09:58:59.669Z,9252
2017-07-02T09:59:59.348Z,11624
2017-07-02T10:00:59.736Z,10740
2017-07-02T10:01:59.610Z,12200
2017-07-02T10:02:59.291Z,12584
2017-07-02T10:03:59.266Z,12580
2017-07-02T10:04:59.548Z,13808
2017-07-02T10:05:59.539Z,16016
2017-07-02T10:06:59.514Z,16288
2017-07-02T10:07:59.499Z,14348
2017-07-02T10:08:59.474Z,12972
2017-07-02T10:09:59.159Z,12088
2017-07-02T10:10:59.446Z,15616
2017-07-02T10:11:59.420Z,14416
2017-07-02T10:12:59.402Z,10644
2017-07-02T10:13:59.377Z,12436
2017-07-02T10:14:59.361Z,14504
2017-07-02T10:15:59.051Z,14412
2017-07-02T10:16:59.323Z,15816
2017-07-02T10:17:59.011Z,14328
2017-07-02T10:18:58.985Z,13324
2017-07-02T10:19:59.273Z,13060
2017-07-02T10:20:58.937Z,14420
2017-07-02T10:21:58.933Z,14512
2017-07-02T10:22:59.203Z,15388
2017-07-02T10:23:59.194Z,14380
2017-07-02T10:24:59.167Z,14288
2017-07-02T10:25:58.845Z,12556
2017-07-02T10:26:59.137Z,10588
2017-07-02T10:27:58.809Z,9884
2017-07-02T10:28:59.093Z,9252
2017-07-02T10:29:59.079Z,8320
2017-07-02T10:30:58.757Z,8364
2017-07-02T10:31:59.039Z,8108
2017-07-02T10:32:58.718Z,8876
2017-07-02T10:33:58.705Z,9912
2017-07-02T10:34:58.982Z,7172
2017-07-02T10:35:58.958Z,7360
2017-07-02T10:36:58.952Z,6820
2017-07-02T10:37:58.623Z,6092
2017-07-02T10:38:58.603Z,7140
2017-07-02T10:39:58.880Z,6516
2017-07-02T10:40:58.879Z,5264
2017-07-02T10:41:58.556Z,6644
2017-07-02T10:42:58.831Z,7624
2017-07-02T10:43:58.817Z,6200
2017-07-02T10:44:58.990Z,5452
2017-07-02T10:45:58.764Z,5920
2017-07-02T10:46:58.498Z,6212
2017-07-02T10:47:58.791Z,6760
2017-07-02T10:48:58.430Z,5820
2017-07-02T10:49:58.944Z,4212
2017-07-02T10:50:58.684Z,3488
2017-07-02T10:51:58.407Z,3132
2017-07-02T10:52:58.627Z,2748
2017-07-02T10:53:58.313Z,3012
2017-07-02T10:54:58.593Z,3248
2017-07-02T10:55:58.576Z,3352
2017-07-02T10:56:58.571Z,3840
2017-07-02T10:57:58.235Z,4676
2017-07-02T10:58:58.515Z,6016
2017-07-02T10:59:58.547Z,6348
2017-07-02T11:00:58.478Z,3532
2017-07-02T11:01:58.146Z,6272
2017-07-02T11:02:58.442Z,7812
2017-07-02T11:03:58.426Z,6068
2017-07-02T11:04:58.417Z,5644
2017-07-02T11:05:58.388Z,5880
2017-07-02T11:06:58.363Z,5652
2017-07-02T11:07:58.341Z,6904
2017-07-02T11:08:58.384Z,6808
2017-07-02T11:09:58.355Z,6168
2017-07-02T11:10:58.354Z,4860
2017-07-02T11:11:58.257Z,3636
2017-07-02T11:12:58.229Z,4360
2017-07-02T11:13:58.221Z,4296
2017-07-02T11:14:57.901Z,5476
2017-07-02T11:15:57.816Z,6104
2017-07-02T11:16:57.545Z,3852
2017-07-02T11:17:58.180Z,3048
2017-07-02T11:18:58.118Z,3652
2017-07-02T11:19:58.131Z,3620
2017-07-02T11:20:58.087Z,5916
2017-07-02T11:21:58.049Z,9636
2017-07-02T11:22:57.784Z,10180
2017-07-02T11:23:58.006Z,11720
2017-07-02T11:24:57.688Z,12816
2017-07-02T11:25:58.016Z,13568
2017-07-02T11:26:57.951Z,13892
2017-07-02T11:27:57.921Z,13844
2017-07-02T11:28:57.903Z,14060
2017-07-02T11:29:57.930Z,14464
2017-07-02T11:30:57.869Z,15776
2017-07-02T11:31:57.837Z,17792
2017-07-02T11:32:57.836Z,18784
2017-07-02T11:33:57.810Z,19936
2017-07-02T11:34:57.491Z,22272
2017-07-02T11:35:57.768Z,22560
2017-07-02T11:36:57.447Z,19104
2017-07-02T11:37:57.787Z,16768
2017-07-02T11:38:57.447Z,15812
2017-07-02T11:39:57.682Z,14664
2017-07-02T11:40:57.670Z,13144
2017-07-02T11:41:57.658Z,12064
2017-07-02T11:42:57.621Z,11380
2017-07-02T11:43:57.313Z,10880
2017-07-02T11:44:57.582Z,11612
2017-07-02T11:45:57.564Z,11540
2017-07-02T11:46:57.541Z,10836
2017-07-02T11:47:57.521Z,11876
2017-07-02T11:48:57.518Z,13208
2017-07-02T11:49:57.183Z,13756
2017-07-02T11:50:57.480Z,13420
2017-07-02T11:51:57.573Z,14028
2017-07-02T11:52:57.437Z,15924
2017-07-02T11:53:57.122Z,17120
2017-07-02T11:54:56.498Z,17248
2017-07-02T11:55:57.090Z,17984
2017-07-02T11:56:57.355Z,18368
2017-07-02T11:57:57.339Z,17952
2017-07-02T11:58:57.311Z,17472
2017-07-02T11:59:57.295Z,18816
2017-07-02T12:00:57.278Z,21312
2017-07-02T12:01:57.253Z,25408
2017-07-02T12:02:57.238Z,25920
2017-07-02T12:03:56.995Z,24160
2017-07-02T12:04:57.197Z,21920
2017-07-02T12:05:57.236Z,20096
2017-07-02T12:06:57.153Z,18656
2017-07-02T12:07:57.138Z,16928
2017-07-02T12:08:57.174Z,15468
2017-07-02T12:09:57.102Z,15360
2017-07-02T12:10:56.779Z,15700
2017-07-02T12:11:57.082Z,15892
2017-07-02T12:12:57.125Z,16864
2017-07-02T12:13:57.043Z,18976
2017-07-02T12:14:56.425Z,21888
2017-07-02T12:15:56.991Z,23904
2017-07-02T12:16:56.982Z,25120
2017-07-02T12:17:57.014Z,25440
2017-07-02T12:18:56.947Z,24224
2017-07-02T12:19:57.235Z,21344
2017-07-02T12:20:56.926Z,18240
2017-07-02T12:21:56.884Z,15404
2017-07-02T12:22:56.894Z,13836
2017-07-02T12:23:56.903Z,12992
2017-07-02T12:24:56.826Z,12260
2017-07-02T12:25:56.821Z,14288
2017-07-02T12:26:56.790Z,19104
2017-07-02T12:27:56.769Z,20160
2017-07-02T12:28:56.753Z,20832
2017-07-02T12:29:56.734Z,21056
2017-07-02T12:30:56.726Z,22272
2017-07-02T12:31:56.108Z,22016
2017-07-02T12:32:56.454Z,21472
2017-07-02T12:33:56.366Z,22688
2017-07-02T12:34:56.657Z,21568
2017-07-02T12:35:56.650Z,21120
2017-07-02T12:36:56.925Z,19008
2017-07-02T12:37:56.626Z,19776
2017-07-02T12:38:56.406Z,19296
2017-07-02T12:39:56.254Z,19616
2017-07-02T12:40:56.547Z,19744
2017-07-02T12:41:56.518Z,21184
2017-07-02T12:42:56.521Z,21760
2017-07-02T12:43:56.536Z,18368
2017-07-02T12:44:56.473Z,17984
2017-07-02T12:45:55.869Z,17600
2017-07-02T12:46:55.838Z,15180
2017-07-02T12:47:55.510Z,15124
2017-07-02T12:48:55.798Z,15920
2017-07-02T12:49:56.368Z,17856
2017-07-02T12:50:56.057Z,20480
2017-07-02T12:51:56.037Z,21280
2017-07-02T12:52:56.327Z,20864
2017-07-02T12:53:56.299Z,17408
2017-07-02T12:54:56.290Z,15528
2017-07-02T12:55:56.261Z,16020
2017-07-02T12:56:56.253Z,17824
2017-07-02T12:57:56.234Z,20352
2017-07-02T12:58:56.219Z,18688
2017-07-02T12:59:56.190Z,15024
2017-07-02T13:00:56.165Z,14072
2017-07-02T13:01:56.159Z,14352
2017-07-02T13:02:56.147Z,14104
2017-07-02T13:03:56.179Z,13220
2017-07-02T13:04:56.110Z,16024
2017-07-02T13:05:55.785Z,17096
2017-07-02T13:06:56.067Z,14048
2017-07-02T13:07:56.094Z,15336
2017-07-02T13:08:55.429Z,16304
2017-07-02T13:09:56.012Z,15192
2017-07-02T13:10:56.011Z,14184
2017-07-02T13:11:55.972Z,10472
2017-07-02T13:12:55.965Z,8484
2017-07-02T13:13:55.946Z,10216
2017-07-02T13:14:55.944Z,9784
2017-07-02T13:15:55.908Z,9552
2017-07-02T13:16:55.589Z,9576
2017-07-02T13:17:55.621Z,10228
2017-07-02T13:18:55.851Z,8712
2017-07-02T13:19:55.541Z,9264
2017-07-02T13:20:55.825Z,11656
2017-07-02T13:21:55.807Z,12384
2017-07-02T13:22:55.786Z,13036
2017-07-02T13:23:55.561Z,12712
2017-07-02T13:24:55.737Z,9556
2017-07-02T13:25:56.021Z,9244
2017-07-02T13:26:55.448Z,8308
2017-07-02T13:27:55.683Z,7040
2017-07-02T13:28:55.671Z,6364